• Join FlightAware (Why Join?)
  • Login
  • US Flag 
06:12AM EDT


 

Airport Tracker/Info


-or-


 

Live Flight TrackerFlight Track Log ✈ N600TR ✈ 20-Aug-2013 ✈ KATL - KMLB

Flight Track Log - Related Links

Times and Time Zones

All times are in EDT time to prevent confusion due to time zone crossing. See the N600TR flight status page for this flight to view local times or setup timezone preferences in your user account.

Time Position Orientation Groundspeed Altitude Reporting Facility
EDT Latitude Longitude Course Direction KTS MPH feet Rate Location/Type
04:02PM 33.6333 -84.3500 163° South 201 231 2,900  Level Atlanta TRACON
04:03PM 33.6000 -84.2833 121° Southeast 257 296 5,000 2,160 Climbing Atlanta TRACON
04:04PM 33.5500 -84.2333 140° Southeast 277 319 7,100 2,100 Climbing Atlanta TRACON
04:05PM 33.4414 -84.2131 171° South 278 320 10,500 2,100 Climbing Atlanta Center
04:06PM 33.3683 -84.2106 178° South 271 312 12,600 1,440 Climbing Atlanta Center
04:07PM 33.1514 -84.2308 163° South  Level FlightAware Approximate
04:07PM 33.2828 -84.2028 176° South 289 333 13,400  Level Atlanta Center
04:08PM 33.1867 -84.1678 163° South 319 367 14,200 1,140 Climbing Atlanta Center
04:09PM 33.0992 -84.0958 145° Southeast 359 413 15,700 1,620 Climbing Atlanta Center
04:10PM 33.0178 -84.0439 152° Southeast 369 425 17,500 1,680 Climbing Atlanta Center
04:11PM 32.9239 -83.9869 153° Southeast 369 425 19,100 1,500 Climbing Atlanta Center
04:12PM 32.8319 -83.9300 153° Southeast 374 430 20,600 1,200 Climbing Atlanta Center
04:13PM 32.7358 -83.8683 152° Southeast 379 436 21,600 1,080 Climbing Atlanta Center
04:14PM 32.6356 -83.8069 153° Southeast 392 451 22,800 1,140 Climbing Atlanta Center
04:15PM 32.5539 -83.7086 135° Southeast 402 463 23,900 900 Climbing Atlanta Center
04:16PM 32.4783 -83.6006 130° Southeast 408 470 24,600 720 Climbing Atlanta Center
04:17PM 32.3986 -83.4928 131° Southeast 427 491 25,400 840 Climbing Atlanta Center
04:18PM 32.3106 -83.3875 135° Southeast 440 506 26,300 780 Climbing Atlanta Center
04:19PM 32.2306 -83.3053 139° Southeast 442 509 26,800 660 Climbing Jacksonville Center
04:20PM 32.1347 -83.2092 140° Southeast 461 531 27,500 660 Climbing Jacksonville Center
04:21PM 32.0347 -83.1106 140° Southeast 466 536 28,200 300 Climbing Jacksonville Center
04:22PM 31.9472 -82.9978 132° Southeast 466 536 28,100 -120 Descending Jacksonville Center
04:23PM 31.8722 -82.8756 126° Southeast 461 531 28,000 -60 Descending Jacksonville Center
04:24PM 31.8011 -82.7556 125° Southeast 461 531 28,000  Level Jacksonville Center
04:25PM 31.7300 -82.6311 124° Southeast 456 525 28,000  Level Jacksonville Center
04:26PM 31.6586 -82.5094 125° Southeast 450 518 28,000  Level Jacksonville Center
04:27PM 31.5872 -82.3878 125° Southeast 450 518 28,000  Level Jacksonville Center
04:28PM 31.5200 -82.2833 127° Southeast 445 512 28,000  Level Jacksonville Center
04:29PM 31.4503 -82.1669 125° Southeast 445 512 28,000  Level Jacksonville Center
04:30PM 31.3478 -82.1019 152° Southeast 413 475 28,000  Level Jacksonville Center
04:31PM 31.2347 -82.0544 160° South 413 475 28,000  Level Jacksonville Center
04:32PM 31.1217 -82.0019 158° South 428 493 28,000  Level Jacksonville Center
04:33PM 31.0064 -81.9400 155° Southeast 441 507 28,000  Level Jacksonville Center
04:34PM 30.8992 -81.8733 152° Southeast 446 513 28,000  Level Jacksonville Center
04:35PM 30.7881 -81.7994 150° Southeast 446 513 28,000  Level Jacksonville Center
04:36PM 30.6789 -81.7381 154° Southeast 451 519 28,000  Level Jacksonville Center
04:37PM 30.5533 -81.7106 169° South 446 513 28,000  Level Jacksonville Center
04:38PM 30.4278 -81.6808 168° South 454 522 28,000  Level Jacksonville Center
04:39PM 30.2878 -81.6536 170° South 460 529 28,000  Level Jacksonville Center
04:40PM 30.1642 -81.6169 166° South 460 529 28,000  Level Jacksonville Center
04:41PM 30.0569 -81.5464 150° Southeast 445 512 28,000  Level Jacksonville Center
04:42PM 29.9475 -81.4736 150° Southeast 450 518 28,000 -300 Level Jacksonville Center
04:43PM 29.8361 -81.4008 150° Southeast 456 525 27,500 -720 Descending Jacksonville Center
04:44PM 29.7225 -81.3286 151° Southeast 462 532 26,600 -960 Descending Jacksonville Center
04:45PM 29.6089 -81.2683 155° Southeast 462 532 25,600 -1,020 Descending Jacksonville Center
04:46PM 29.4936 -81.2175 159° South 457 526 24,600 -1,500 Descending Jacksonville Center
04:47PM 29.3906 -81.1669 157° South 451 519 22,700 -2,460 Descending Jacksonville Center
04:48PM 29.2833 -81.1189 159° South 436 502 19,700 -3,000 Descending Jacksonville Center
04:49PM 29.1706 -81.1019 173° South 410 472 16,700 -2,280 Descending Jacksonville Center
04:50PM 29.0619 -81.0967 178° South 405 466 15,200 -960 Descending Jacksonville Center
04:51PM 28.9572 -81.0844 174° South 395 455 14,800 -1,620 Descending Jacksonville Center
04:52PM 28.8550 -81.0744 175° South 383 441 12,100 -2,460 Descending Jacksonville Center
04:53PM 28.8000 -81.0667 173° South 360 414 11,100 -1,320 Descending Orlando TRACON
04:53PM 28.7167 -81.0667 180° South 302 348 10,300 -1,080 Descending Orlando TRACON
04:54PM 28.6333 -81.0500 170° South 275 316 9,100 -1,560 Descending Orlando TRACON
04:55PM 28.5667 -81.0333 168° South 272 313 7,200 -1,620 Descending Orlando TRACON
04:56PM 28.4833 -81.0167 170° South 266 306 5,900 -1,020 Descending Orlando TRACON
04:57PM 28.4167 -81.0000 168° South 267 307 5,200 -480 Descending Orlando TRACON
04:58PM 28.3500 -80.9833 168° South 257 296 5,000 -120 Descending Orlando TRACON
04:59PM 28.2833 -80.9500 156° South 252 290 5,000 -600 Level Orlando TRACON
05:00PM 28.2167 -80.9000 147° Southeast 242 278 3,900 -1,140 Descending Orlando TRACON
05:01PM 28.1667 -80.8667 150° Southeast 235 270 2,800 -900 Descending Orlando TRACON
05:02PM 28.1167 -80.8333 150° Southeast 220 253 2,100 -480 Descending Orlando TRACON
05:03PM 28.1000 -80.7833 111° Southeast 161 185 1,900 -540 Descending Orlando TRACON
05:04PM 28.1000 -80.7333 90° East 160 184 1,100 -720 Descending Orlando TRACON
05:05PM 28.1000 -80.6833 90° East 127 146 500 -600 Descending Orlando TRACON
05:07PM 28.1028 -80.6453 115° Southeast  Level Estimated
05:14PM 28.1028 -80.6453 115° Southeast  Level Estimated
05:15PM 28.1028 -80.6453 115° Southeast  Level Estimated